Time;durP1;ratioP1;P1;durP2;ratioP2;P2;SDS_P1;SDS_P2;PMS_P1;PMS_P2;Temp;Humidity;BMP_temperature;BMP_pressure;BME280_temperature;BME280_humidity;BME280_pressure;Samples;Min_cycle;Max_cycle;Signal;HPM_P1;HPM_P2
2022/11/19 00:01:55;;;;;;;7.47;1.50;;;9.60;93.30;;;;;;4923322;29;20057;-72
2022/11/19 00:04:21;;;;;;;7.20;1.48;;;9.70;93.20;;;;;;4922132;29;20271;-72
2022/11/19 00:06:46;;;;;;;6.93;1.55;;;9.70;93.20;;;;;;4921516;29;20027;-72
2022/11/19 00:09:13;;;;;;;7.72;1.63;;;9.70;93.30;;;;;;4923053;29;20032;-72
2022/11/19 00:14:23;;;;;;;9.20;1.52;;;9.70;92.60;;;;;;4919742;29;20046;-72
2022/11/19 00:16:49;;;;;;;7.35;1.67;;;9.70;93.40;;;;;;4933994;28;20127;-72
2022/11/19 00:19:14;;;;;;;7.18;1.30;;;9.60;93.80;;;;;;4921327;29;20487;-72
2022/11/19 00:21:40;;;;;;;8.73;1.60;;;9.60;93.30;;;;;;4923372;29;20027;-72
2022/11/19 00:24:06;;;;;;;6.22;1.63;;;9.60;93.40;;;;;;4920418;29;20063;-72
2022/11/19 00:26:32;;;;;;;9.23;2.10;;;9.60;93.20;;;;;;4918969;29;20044;-72
2022/11/19 00:28:58;;;;;;;8.80;1.52;;;9.60;93.20;;;;;;4922172;29;20035;-71
2022/11/19 00:31:23;;;;;;;9.02;1.77;;;9.60;93.10;;;;;;4922050;29;20095;-72
2022/11/19 00:33:49;;;;;;;5.40;1.60;;;9.60;93.10;;;;;;4919019;29;20051;-71
2022/11/19 00:36:15;;;;;;;14.13;1.80;;;9.60;93.00;;;;;;4917815;29;20243;-72
2022/11/19 00:38:42;;;;;;;9.07;1.55;;;9.50;93.30;;;;;;4919976;29;20114;-72
2022/11/19 00:41:07;;;;;;;7.15;1.20;;;9.40;93.40;;;;;;4920064;29;20079;-71
2022/11/19 00:43:48;;;;;;;10.57;2.15;;;9.40;93.20;;;;;;4917688;29;20043;-71
2022/11/19 00:46:18;;;;;;;7.50;1.58;;;9.30;93.50;;;;;;4918292;29;20027;-72
2022/11/19 00:48:45;;;;;;;8.05;1.65;;;9.30;93.70;;;;;;4921095;29;20035;-72
2022/11/19 00:51:11;;;;;;;10.52;1.65;;;9.20;93.70;;;;;;4921004;29;20028;-72
2022/11/19 00:53:37;;;;;;;4.07;1.33;;;9.20;94.10;;;;;;4918069;29;20044;-71
2022/11/19 00:56:05;;;;;;;7.40;1.88;;;9.10;94.50;;;;;;4921414;29;20505;-71
2022/11/19 00:58:30;;;;;;;5.70;1.65;;;9.10;94.50;;;;;;4917344;29;20035;-72
2022/11/19 01:00:56;;;;;;;9.77;1.88;;;9.00;94.50;;;;;;4921175;29;20543;-72
2022/11/19 01:03:22;;;;;;;10.75;1.58;;;9.00;94.30;;;;;;4919376;29;20079;-71
2022/11/19 01:05:48;;;;;;;5.47;1.50;;;8.90;94.60;;;;;;4919780;29;20055;-71
2022/11/19 01:08:14;;;;;;;5.90;1.70;;;8.90;94.50;;;;;;4915042;29;20105;-71
2022/11/19 01:10:39;;;;;;;6.78;1.40;;;8.80;94.50;;;;;;4920464;29;20086;-72
2022/11/19 01:15:50;;;;;;;7.28;1.80;;;8.80;95.10;;;;;;4921488;29;20091;-71
2022/11/19 01:18:17;;;;;;;10.88;1.77;;;8.80;95.10;;;;;;4918939;29;20035;-71
2022/11/19 01:20:43;;;;;;;8.40;1.80;;;8.80;95.40;;;;;;4920042;29;20043;-71
2022/11/19 01:23:09;;;;;;;11.48;2.15;;;8.70;95.50;;;;;;4920754;29;20042;-71
2022/11/19 01:25:35;;;;;;;8.48;1.50;;;8.80;95.60;;;;;;4918545;29;20039;-71
2022/11/19 01:28:01;;;;;;;6.90;1.67;;;8.80;95.50;;;;;;4920521;29;20028;-71
2022/11/19 01:30:27;;;;;;;4.45;1.20;;;8.90;95.50;;;;;;4918749;29;20059;-72
2022/11/19 01:32:52;;;;;;;5.95;1.60;;;8.90;95.40;;;;;;4929101;28;20439;-72
2022/11/19 01:35:18;;;;;;;9.15;1.52;;;8.90;95.10;;;;;;4921802;29;20038;-71
2022/11/19 01:37:44;;;;;;;11.32;1.40;;;8.80;95.00;;;;;;4920539;29;20040;-72
2022/11/19 01:40:10;;;;;;;9.43;1.60;;;8.80;95.30;;;;;;4920387;29;20071;-71
2022/11/19 01:42:52;;;;;;;11.30;1.40;;;8.80;95.70;;;;;;4919475;29;20065;-71
2022/11/19 01:45:41;;;;;;;5.22;1.40;;;8.80;95.50;;;;;;4919435;29;20533;-71
2022/11/19 01:48:06;;;;;;;5.90;1.40;;;9.00;95.50;;;;;;4918019;29;20031;-71
2022/11/19 01:50:37;;;;;;;6.70;1.63;;;9.00;95.20;;;;;;4920242;29;20090;-71
2022/11/19 01:53:04;;;;;;;7.53;1.60;;;9.00;95.20;;;;;;4919764;29;20042;-71
2022/11/19 01:55:29;;;;;;;11.45;2.03;;;9.10;95.20;;;;;;4920706;29;20175;-71
2022/11/19 01:57:58;;;;;;;8.00;1.75;;;9.00;94.90;;;;;;4919710;29;20659;-71
2022/11/19 02:00:25;;;;;;;9.10;1.85;;;9.00;95.00;;;;;;4918046;29;20091;-71
2022/11/19 02:02:50;;;;;;;9.75;1.75;;;9.00;94.70;;;;;;4917338;29;20205;-71
2022/11/19 02:05:17;;;;;;;5.10;1.50;;;9.00;94.30;;;;;;4916667;29;20162;-71
2022/11/19 02:07:48;;;;;;;7.93;1.85;;;9.00;94.80;;;;;;4921055;29;20063;-72
2022/11/19 02:10:13;;;;;;;11.20;1.80;;;9.00;94.90;;;;;;4916697;29;20031;-72
2022/11/19 02:12:48;;;;;;;8.57;1.60;;;9.00;94.60;;;;;;4919143;29;20048;-71
2022/11/19 02:15:32;;;;;;;8.30;1.88;;;8.90;94.80;;;;;;4921033;29;20427;-71
2022/11/19 02:18:21;;;;;;;9.02;1.67;;;8.90;95.20;;;;;;4918203;29;20035;-72
2022/11/19 02:21:11;;;;;;;8.18;1.85;;;8.90;95.40;;;;;;4918297;29;20055;-72
2022/11/19 02:24:15;;;;;;;6.75;1.67;;;8.80;95.30;;;;;;4919302;29;20054;-71
2022/11/19 02:26:56;;;;;;;4.47;1.30;;;8.70;95.90;;;;;;4912003;29;20040;-72
2022/11/19 02:29:30;;;;;;;9.45;1.70;;;8.70;95.70;;;;;;4919145;29;20479;-71
2022/11/19 02:32:00;;;;;;;5.40;1.42;;;8.70;95.60;;;;;;4919620;29;20048;-71
2022/11/19 02:34:48;;;;;;;7.38;1.73;;;8.70;95.40;;;;;;4912170;29;20031;-71
2022/11/19 02:37:24;;;;;;;9.30;1.85;;;8.70;95.30;;;;;;4917586;29;20054;-72
2022/11/19 02:39:56;;;;;;;7.15;1.63;;;8.70;95.10;;;;;;4917627;29;20031;-71
2022/11/19 02:42:31;;;;;;;7.05;1.48;;;8.60;95.30;;;;;;4918182;29;20035;-72
2022/11/19 02:45:03;;;;;;;7.80;1.80;;;8.50;95.60;;;;;;4919038;29;20087;-71
2022/11/19 02:47:36;;;;;;;7.03;1.80;;;8.40;95.00;;;;;;4919581;29;20559;-71
2022/11/19 02:50:18;;;;;;;6.80;1.70;;;8.30;95.40;;;;;;4915407;29;20054;-71
2022/11/19 02:52:45;;;;;;;8.23;2.38;;;8.10;95.50;;;;;;4919922;29;20070;-72
2022/11/19 02:55:16;;;;;;;6.60;1.73;;;8.00;96.20;;;;;;4919184;29;20106;-72
2022/11/19 02:57:47;;;;;;;4.60;1.30;;;7.80;96.30;;;;;;4918232;29;20038;-71
2022/11/19 03:05:59;;;;;;;10.40;1.80;;;7.50;97.20;;;;;;4922130;29;20087;-72
2022/11/19 03:08:25;;;;;;;3.80;1.35;;;7.40;97.40;;;;;;4923251;29;20083;-71
2022/11/19 03:11:05;;;;;;;7.53;1.60;;;7.30;97.80;;;;;;4922119;29;20036;-72
2022/11/19 03:17:14;;;;;;;4.68;1.48;;;7.30;97.90;;;;;;4920148;29;20038;-71
2022/11/19 03:19:52;;;;;;;7.57;1.75;;;7.20;98.00;;;;;;4922977;29;20043;-72
2022/11/19 03:22:26;;;;;;;6.88;1.42;;;7.20;98.00;;;;;;4921236;29;20170;-71
2022/11/19 03:25:25;;;;;;;8.52;1.65;;;7.10;98.30;;;;;;4920072;29;20476;-72
2022/11/19 03:27:55;;;;;;;5.57;1.50;;;7.00;98.10;;;;;;4914333;29;20047;-71
2022/11/19 03:30:21;;;;;;;8.88;1.45;;;7.00;98.40;;;;;;4922364;29;20031;-72
2022/11/19 03:32:52;;;;;;;11.73;1.77;;;7.00;98.60;;;;;;4922207;29;20154;-71
2022/11/19 03:35:21;;;;;;;;;;;6.90;98.60;;;;;;4921264;29;20204;-71
2022/11/19 03:37:51;;;;;;;3.97;1.55;;;6.90;98.90;;;;;;4919783;29;20009;-72
2022/11/19 03:40:18;;;;;;;7.93;1.38;;;6.90;99.00;;;;;;4918628;29;20418;-72
2022/11/19 03:42:49;;;;;;;8.68;1.52;;;6.80;99.10;;;;;;4922672;29;20102;-72
2022/11/19 03:45:23;;;;;;;11.00;1.77;;;6.80;99.40;;;;;;4922252;29;20656;-72
2022/11/19 03:47:50;;;;;;;9.00;1.95;;;6.80;99.50;;;;;;4922262;29;20031;-71
2022/11/19 03:50:23;;;;;;;8.68;1.60;;;6.80;99.60;;;;;;4915540;29;20028;-71
2022/11/19 03:52:49;;;;;;;13.50;1.75;;;6.80;99.40;;;;;;4922542;29;20044;-71
2022/11/19 03:55:15;;;;;;;8.25;1.70;;;6.90;99.30;;;;;;4921363;29;20201;-71
2022/11/19 03:57:42;;;;;;;7.00;1.60;;;6.90;99.30;;;;;;4922430;29;20502;-72
2022/11/19 04:00:08;;;;;;;7.35;1.85;;;7.00;99.00;;;;;;4922229;29;20042;-72
2022/11/19 04:02:34;;;;;;;7.25;1.40;;;7.10;98.90;;;;;;4919560;29;20082;-71
2022/11/19 04:05:00;;;;;;;7.38;1.30;;;7.20;98.90;;;;;;4922166;29;20031;-72
2022/11/19 04:07:25;;;;;;;8.35;1.60;;;7.20;98.70;;;;;;4916043;29;20138;-71
2022/11/19 04:09:51;;;;;;;7.78;1.60;;;7.30;98.70;;;;;;4920972;29;20035;-71
2022/11/19 04:12:18;;;;;;;9.00;1.77;;;7.30;98.60;;;;;;4921161;29;20463;-71
2022/11/19 04:14:44;;;;;;;4.55;1.50;;;7.40;98.50;;;;;;4920307;29;20024;-72
2022/11/19 04:17:09;;;;;;;4.97;1.50;;;7.40;98.30;;;;;;4918471;29;20094;-72
2022/11/19 04:19:36;;;;;;;4.95;1.40;;;7.50;98.20;;;;;;4922244;29;20035;-72
2022/11/19 04:22:01;;;;;;;12.50;1.83;;;7.50;98.20;;;;;;4921799;29;20066;-72
2022/11/19 04:24:27;;;;;;;9.20;1.67;;;7.60;97.90;;;;;;4922721;29;20464;-71
2022/11/19 04:26:53;;;;;;;7.95;1.70;;;7.60;98.10;;;;;;4918784;29;20040;-72
2022/11/19 04:29:18;;;;;;;11.52;1.40;;;7.70;98.10;;;;;;4921715;29;20032;-72
2022/11/19 04:31:44;;;;;;;9.23;1.70;;;7.80;97.90;;;;;;4923037;29;20126;-71
2022/11/19 04:34:10;;;;;;;6.82;1.73;;;7.80;97.50;;;;;;4921060;29;20052;-72
2022/11/19 04:36:35;;;;;;;11.70;1.88;;;7.90;97.90;;;;;;4920861;29;20043;-72
2022/11/19 04:39:01;;;;;;;6.55;1.60;;;7.90;98.00;;;;;;4919892;29;20118;-71
2022/11/19 04:41:27;;;;;;;7.97;1.70;;;8.00;98.00;;;;;;4920011;29;20032;-71
2022/11/19 04:43:53;;;;;;;8.43;2.13;;;8.00;98.10;;;;;;4922426;29;20035;-72
2022/11/19 04:46:18;;;;;;;7.70;1.30;;;8.10;97.90;;;;;;4920949;29;20050;-72
2022/11/19 04:48:44;;;;;;;8.57;1.77;;;8.10;98.00;;;;;;4921987;29;20111;-71
2022/11/19 04:51:09;;;;;;;5.43;1.60;;;8.10;97.80;;;;;;4918122;29;20538;-71
2022/11/19 04:53:35;;;;;;;8.50;1.60;;;8.10;97.60;;;;;;4921400;29;20040;-72
2022/11/19 04:56:01;;;;;;;6.47;1.70;;;8.20;97.50;;;;;;4921965;29;20047;-71
2022/11/19 04:58:26;;;;;;;6.03;2.05;;;8.20;97.50;;;;;;4921417;29;20157;-71
2022/11/19 05:00:52;;;;;;;6.88;1.38;;;8.30;97.60;;;;;;4921769;29;20039;-71
2022/11/19 05:03:17;;;;;;;8.45;2.10;;;8.30;97.20;;;;;;4920001;29;20506;-72
2022/11/19 05:05:43;;;;;;;7.03;2.05;;;8.30;97.20;;;;;;4922924;29;20460;-71
2022/11/19 05:08:09;;;;;;;8.35;1.73;;;8.30;97.30;;;;;;4920304;29;20058;-71
2022/11/19 05:10:34;;;;;;;5.72;1.30;;;8.30;97.00;;;;;;4919359;29;20454;-71
2022/11/19 05:13:00;;;;;;;9.13;1.50;;;8.30;97.00;;;;;;4922024;29;20697;-71
2022/11/19 05:15:25;;;;;;;7.18;1.80;;;8.40;97.30;;;;;;4918287;29;20059;-72
2022/11/19 05:17:51;;;;;;;6.10;1.48;;;8.40;97.10;;;;;;4919123;29;20495;-71
2022/11/19 05:20:17;;;;;;;6.18;1.80;;;8.40;97.00;;;;;;4919780;29;20467;-71
2022/11/19 05:22:42;;;;;;;7.68;1.73;;;8.40;97.20;;;;;;4918142;29;20031;-72
2022/11/19 05:25:08;;;;;;;8.57;1.45;;;8.40;97.00;;;;;;4933456;28;20032;-71
2022/11/19 05:27:34;;;;;;;4.50;1.50;;;8.40;97.00;;;;;;4919336;29;20059;-72
2022/11/19 05:29:59;;;;;;;7.50;1.55;;;8.40;96.90;;;;;;4920957;29;20068;-71
2022/11/19 05:32:25;;;;;;;8.32;1.48;;;8.40;96.70;;;;;;4919343;29;20051;-72
2022/11/19 05:34:51;;;;;;;5.50;1.30;;;8.40;96.80;;;;;;4919598;29;20040;-72
2022/11/19 05:37:16;;;;;;;8.40;1.65;;;8.40;96.80;;;;;;4918670;29;20028;-72
2022/11/19 05:39:42;;;;;;;4.78;1.60;;;8.40;97.00;;;;;;4919057;29;20065;-71
2022/11/19 05:42:07;;;;;;;9.20;1.60;;;8.40;97.00;;;;;;4918545;29;20023;-71
2022/11/19 05:44:33;;;;;;;8.05;1.60;;;8.40;97.10;;;;;;4918221;29;20031;-71
2022/11/19 05:46:58;;;;;;;8.70;1.20;;;8.40;97.10;;;;;;4920365;29;20935;-72
2022/11/19 05:49:24;;;;;;;6.28;1.63;;;8.40;97.00;;;;;;4919048;29;20055;-72
2022/11/19 05:51:50;;;;;;;4.07;1.30;;;8.50;96.90;;;;;;4917903;29;20035;-72
2022/11/19 05:54:15;;;;;;;5.88;1.55;;;8.50;97.90;;;;;;4919802;29;20055;-72
2022/11/19 05:56:41;;;;;;;7.70;1.67;;;8.60;97.10;;;;;;4919690;29;20032;-71
2022/11/19 05:59:06;;;;;;;7.15;1.55;;;8.60;96.80;;;;;;4919156;29;20126;-71
2022/11/19 06:01:32;;;;;;;6.65;1.35;;;8.60;97.20;;;;;;4919980;29;20040;-72
2022/11/19 06:03:57;;;;;;;4.93;1.45;;;8.60;97.50;;;;;;4919944;29;20080;-71
2022/11/19 06:06:24;;;;;;;9.25;1.73;;;8.60;97.10;;;;;;4919164;29;20106;-71
2022/11/19 06:08:50;;;;;;;5.28;1.48;;;8.70;97.30;;;;;;4919664;29;20024;-71
2022/11/19 06:12:02;;;;;;;5.93;1.65;;;8.70;97.10;;;;;;4918257;29;20534;-71
2022/11/19 06:14:02;;;;;;;4.53;1.42;;;8.70;96.90;;;;;;4911214;29;20043;-71
2022/11/19 06:16:28;;;;;;;7.35;1.67;;;8.70;97.00;;;;;;4919594;29;20019;-71
2022/11/19 06:18:54;;;;;;;10.77;1.63;;;8.70;96.70;;;;;;4919902;29;20387;-71
2022/11/19 06:21:19;;;;;;;8.68;2.17;;;8.70;97.00;;;;;;4917822;29;20059;-72
2022/11/19 06:23:45;;;;;;;4.75;1.30;;;8.70;96.90;;;;;;4919334;29;20032;-71
2022/11/19 06:26:11;;;;;;;5.32;1.42;;;8.60;97.10;;;;;;4918549;29;20084;-72
2022/11/19 06:28:36;;;;;;;7.95;1.60;;;8.60;97.00;;;;;;4914873;29;20035;-72
2022/11/19 06:31:02;;;;;;;12.00;1.52;;;8.60;96.90;;;;;;4919630;29;20046;-71
2022/11/19 06:33:28;;;;;;;6.03;1.17;;;8.60;97.20;;;;;;4917818;29;20549;-71
2022/11/19 06:35:53;;;;;;;4.95;1.27;;;8.60;96.90;;;;;;4917900;29;20055;-70
2022/11/19 06:38:19;;;;;;;6.80;1.23;;;8.60;97.30;;;;;;4917371;29;20131;-70
2022/11/19 06:40:45;;;;;;;9.10;1.40;;;8.60;97.50;;;;;;4917621;29;20032;-70
2022/11/19 06:43:11;;;;;;;4.38;1.30;;;8.70;97.40;;;;;;4919483;29;20448;-70
2022/11/19 06:45:37;;;;;;;10.07;1.90;;;8.70;97.30;;;;;;4918537;29;20391;-71
2022/11/19 06:48:03;;;;;;;5.95;1.35;;;8.70;97.00;;;;;;4918550;29;20106;-71
2022/11/19 06:50:29;;;;;;;7.03;1.38;;;8.70;96.80;;;;;;4918728;29;20507;-70
2022/11/19 06:52:54;;;;;;;4.00;1.10;;;8.70;97.10;;;;;;4916209;29;20048;-71
2022/11/19 06:55:20;;;;;;;5.57;1.33;;;8.70;97.20;;;;;;4918711;29;20035;-71
2022/11/19 06:57:45;;;;;;;6.93;1.38;;;8.70;96.90;;;;;;4919667;29;20130;-71
2022/11/19 07:00:12;;;;;;;6.88;1.13;;;8.70;96.70;;;;;;4918593;29;20047;-71
2022/11/19 07:02:37;;;;;;;5.18;1.05;;;8.60;96.60;;;;;;4919307;29;20153;-70
2022/11/19 07:05:04;;;;;;;7.53;1.65;;;8.60;97.00;;;;;;4916183;29;20032;-70
2022/11/19 07:07:30;;;;;;;6.13;1.30;;;8.50;97.10;;;;;;4919230;29;20023;-70
2022/11/19 07:09:56;;;;;;;4.47;1.10;;;8.60;97.00;;;;;;4920232;29;20502;-70
2022/11/19 07:12:22;;;;;;;3.38;1.17;;;8.60;97.30;;;;;;4919535;29;20043;-71
2022/11/19 07:14:47;;;;;;;10.65;1.38;;;8.60;97.20;;;;;;4917617;29;20067;-70
2022/11/19 07:17:13;;;;;;;6.93;1.30;;;8.60;97.20;;;;;;4916561;29;20051;-71
2022/11/19 07:19:38;;;;;;;5.90;1.50;;;8.60;97.20;;;;;;4918095;29;20563;-70
2022/11/19 07:22:04;;;;;;;5.18;1.20;;;8.60;97.30;;;;;;4917293;29;20131;-71
2022/11/19 07:24:30;;;;;;;6.78;1.45;;;8.60;97.30;;;;;;4917187;29;20036;-71
2022/11/19 07:26:55;;;;;;;5.50;1.33;;;8.60;97.30;;;;;;4917140;29;20028;-70
2022/11/19 07:29:21;;;;;;;5.57;1.17;;;8.60;97.20;;;;;;4915997;29;20034;-70
2022/11/19 07:31:49;;;;;;;9.05;1.33;;;8.70;97.30;;;;;;4911257;29;20072;-71
2022/11/19 07:34:15;;;;;;;5.35;1.30;;;8.70;97.20;;;;;;4916963;29;20079;-71
2022/11/19 07:36:42;;;;;;;6.95;1.73;;;8.70;97.40;;;;;;4916299;29;20031;-70
2022/11/19 07:39:08;;;;;;;6.22;1.50;;;8.70;97.40;;;;;;4920708;29;20042;-71
2022/11/19 07:44:17;;;;;;;9.00;1.90;;;8.80;97.10;;;;;;4932642;28;20054;-71
2022/11/19 07:46:43;;;;;;;7.72;1.38;;;8.80;97.30;;;;;;4937930;28;20027;-71
2022/11/19 07:49:09;;;;;;;9.40;1.45;;;8.70;97.40;;;;;;4935643;28;20036;-71
2022/11/19 07:51:35;;;;;;;4.38;1.50;;;8.80;97.60;;;;;;4931099;28;20037;-71
2022/11/19 07:54:00;;;;;;;3.00;1.00;;;8.80;97.50;;;;;;4931317;28;20490;-70
2022/11/19 07:56:26;;;;;;;8.13;1.50;;;8.80;97.70;;;;;;4933475;28;20206;-70
2022/11/19 07:58:51;;;;;;;5.43;1.45;;;8.80;97.70;;;;;;4930949;29;20895;-70
2022/11/19 08:01:20;;;;;;;3.47;1.45;;;8.90;97.40;;;;;;4944288;28;20050;-71
2022/11/19 08:03:47;;;;;;;5.53;1.20;;;8.80;97.40;;;;;;4941719;28;20376;-70
2022/11/19 08:06:16;;;;;;;3.40;1.10;;;8.80;97.80;;;;;;4925666;29;20114;-70
2022/11/19 08:08:42;;;;;;;9.20;1.33;;;8.90;97.80;;;;;;4935096;28;20031;-70
2022/11/19 08:11:10;;;;;;;4.00;1.25;;;8.90;97.40;;;;;;4934781;28;20466;-71
2022/11/19 08:13:38;;;;;;;8.25;1.30;;;9.00;97.40;;;;;;4937014;28;20050;-71
2022/11/19 08:16:09;;;;;;;6.07;1.30;;;9.10;97.20;;;;;;4935594;29;20019;-70
2022/11/19 08:18:35;;;;;;;6.85;1.70;;;9.20;96.80;;;;;;4933624;28;20111;-71
2022/11/19 08:21:03;;;;;;;8.50;1.35;;;9.20;96.60;;;;;;4934102;28;20114;-71
2022/11/19 08:23:29;;;;;;;6.35;1.30;;;9.20;96.70;;;;;;4926583;28;20043;-70
2022/11/19 08:25:55;;;;;;;7.10;1.58;;;9.30;96.40;;;;;;4937268;29;20031;-70
2022/11/19 08:28:20;;;;;;;8.43;1.70;;;9.40;96.30;;;;;;4939499;28;20031;-70
2022/11/19 08:30:46;;;;;;;5.95;1.23;;;9.30;96.30;;;;;;4936563;28;20039;-70
2022/11/19 08:33:12;;;;;;;3.67;1.00;;;9.30;96.70;;;;;;4940274;28;20047;-70
2022/11/19 08:35:38;;;;;;;7.47;2.30;;;9.40;96.80;;;;;;4944380;28;20519;-71
2022/11/19 08:38:03;;;;;;;5.45;1.27;;;9.50;96.00;;;;;;4938109;29;20132;-71
2022/11/19 08:40:29;;;;;;;7.78;1.65;;;9.60;95.50;;;;;;4942089;28;20047;-70
2022/11/19 08:43:00;;;;;;;10.20;1.42;;;9.60;95.50;;;;;;4936100;28;20130;-70
2022/11/19 08:45:27;;;;;;;;;;;9.60;95.60;;;;;;4935824;28;20448;-70
2022/11/19 08:47:54;;;;;;;4.43;1.35;;;9.70;95.10;;;;;;4930221;29;20418;-71
2022/11/19 08:50:20;;;;;;;8.52;1.40;;;9.80;95.40;;;;;;4936287;28;20111;-71
2022/11/19 08:52:45;;;;;;;8.13;1.60;;;9.80;95.70;;;;;;4933407;28;20053;-70
2022/11/19 08:55:11;;;;;;;5.10;1.27;;;9.90;94.90;;;;;;4941005;28;20035;-70
2022/11/19 08:57:37;;;;;;;6.35;1.30;;;9.90;94.70;;;;;;4944675;28;20098;-70
2022/11/19 09:00:03;;;;;;;8.35;1.77;;;10.00;94.90;;;;;;4941005;28;20034;-70
2022/11/19 09:02:29;;;;;;;7.15;1.45;;;10.00;94.60;;;;;;4945431;28;20041;-70
2022/11/19 09:04:54;;;;;;;4.63;1.50;;;10.00;94.00;;;;;;4931935;29;20094;-71
2022/11/19 09:07:20;;;;;;;7.40;1.20;;;10.10;94.20;;;;;;4941131;28;20086;-70
2022/11/19 09:09:46;;;;;;;4.57;1.42;;;10.20;93.80;;;;;;4927725;29;20051;-70
2022/11/19 09:12:11;;;;;;;6.45;1.27;;;10.20;94.60;;;;;;4929095;28;20109;-71
2022/11/19 09:14:37;;;;;;;5.43;1.45;;;10.30;93.90;;;;;;4941958;28;20035;-71
2022/11/19 09:17:02;;;;;;;6.75;1.48;;;10.30;94.20;;;;;;4927051;28;20553;-71
2022/11/19 09:19:28;;;;;;;4.70;1.48;;;10.50;93.40;;;;;;4927975;28;20066;-70
2022/11/19 09:21:53;;;;;;;5.63;1.23;;;10.50;93.00;;;;;;4932852;28;20376;-71
2022/11/19 09:24:19;;;;;;;6.25;1.48;;;10.50;93.70;;;;;;4931187;28;20389;-71
2022/11/19 09:26:45;;;;;;;9.07;1.88;;;10.60;93.60;;;;;;4932515;28;20035;-71
2022/11/19 09:29:10;;;;;;;6.03;1.42;;;10.70;92.70;;;;;;4925603;28;20035;-71
2022/11/19 09:31:36;;;;;;;9.65;2.03;;;10.70;92.50;;;;;;4930840;28;20027;-70
2022/11/19 09:34:02;;;;;;;8.60;1.48;;;10.70;91.80;;;;;;4926111;28;20055;-71
2022/11/19 09:36:28;;;;;;;10.40;1.25;;;10.80;92.70;;;;;;4928746;28;20032;-71
2022/11/19 09:38:57;;;;;;;7.60;1.67;;;10.80;92.90;;;;;;4932470;28;20039;-71
2022/11/19 09:41:57;;;;;;;7.45;1.30;;;10.90;92.20;;;;;;4926981;28;20067;-71
2022/11/19 09:44:35;;;;;;;7.22;1.25;;;11.00;91.60;;;;;;4925939;28;20458;-70
2022/11/19 09:47:15;;;;;;;4.05;1.17;;;11.10;91.60;;;;;;4926543;28;20042;-71
2022/11/19 09:49:57;;;;;;;9.73;1.75;;;11.10;91.50;;;;;;4926555;28;20267;-71
2022/11/19 09:52:27;;;;;;;7.10;1.40;;;11.20;91.20;;;;;;4932596;28;20473;-70
2022/11/19 09:54:55;;;;;;;8.02;1.50;;;11.20;91.30;;;;;;4929648;28;20062;-71
2022/11/19 09:57:34;;;;;;;4.70;1.67;;;11.30;91.10;;;;;;4928644;28;20420;-70
2022/11/19 10:00:01;;;;;;;6.40;1.15;;;11.20;91.20;;;;;;4947258;28;20050;-70
2022/11/19 10:02:28;;;;;;;8.05;1.40;;;11.20;91.10;;;;;;4938625;28;20114;-70
2022/11/19 10:04:53;;;;;;;4.38;1.35;;;11.20;91.30;;;;;;4936577;28;20387;-71
2022/11/19 10:07:31;;;;;;;3.85;1.38;;;11.20;91.70;;;;;;4936980;28;20035;-71
2022/11/19 10:10:35;;;;;;;9.07;1.35;;;11.20;91.40;;;;;;4935631;28;20299;-71
2022/11/19 10:13:48;;;;;;;9.55;1.38;;;11.30;90.90;;;;;;4941603;28;20043;-70
2022/11/19 10:16:21;;;;;;;4.05;1.23;;;11.50;90.90;;;;;;4895360;29;20143;-71
2022/11/19 10:19:05;;;;;;;5.03;1.60;;;11.70;90.40;;;;;;4927479;28;20041;-70
2022/11/19 10:21:41;;;;;;;3.70;0.98;;;11.90;90.50;;;;;;4931552;28;20713;-71
2022/11/19 10:24:16;;;;;;;5.43;1.02;;;12.00;89.40;;;;;;4928123;28;20173;-71
2022/11/19 10:26:55;;;;;;;5.75;1.27;;;11.90;88.70;;;;;;4929907;28;20102;-71
2022/11/19 10:29:24;;;;;;;4.75;1.38;;;12.00;87.80;;;;;;4930118;28;20031;-70
2022/11/19 10:31:50;;;;;;;9.32;1.38;;;11.90;87.70;;;;;;4933221;29;20414;-71
2022/11/19 10:34:36;;;;;;;5.65;1.48;;;12.00;88.00;;;;;;4929181;28;20122;-71
2022/11/19 10:37:10;;;;;;;5.43;1.20;;;11.90;88.60;;;;;;4929652;28;20058;-71
2022/11/19 10:39:35;;;;;;;4.10;1.40;;;11.90;89.00;;;;;;4929205;29;20108;-71
2022/11/19 10:42:28;;;;;;;9.98;1.92;;;11.70;88.90;;;;;;4929415;28;20039;-70
2022/11/19 10:45:05;;;;;;;4.72;1.63;;;11.70;89.10;;;;;;4933999;28;20085;-71
2022/11/19 10:47:49;;;;;;;7.32;1.50;;;11.70;88.20;;;;;;4934634;28;20435;-71
2022/11/19 10:50:23;;;;;;;5.32;1.15;;;12.50;85.20;;;;;;4929162;28;20139;-71
2022/11/19 10:52:59;;;;;;;5.82;1.38;;;14.60;76.90;;;;;;4933783;28;20055;-71
2022/11/19 10:55:33;;;;;;;6.50;1.20;;;17.10;65.40;;;;;;4934667;28;20074;-71
2022/11/19 10:58:38;;;;;;;5.75;1.50;;;19.00;56.60;;;;;;4930281;29;20043;-71
2022/11/19 11:01:24;;;;;;;6.32;1.42;;;19.70;52.90;;;;;;4893629;29;20109;-72
2022/11/19 11:04:14;;;;;;;8.55;1.42;;;19.00;53.00;;;;;;4931655;28;20061;-72
2022/11/19 11:07:00;;;;;;;7.35;1.55;;;18.00;56.80;;;;;;4923449;28;20499;-72
2022/11/19 11:09:40;;;;;;;4.88;1.63;;;17.60;58.90;;;;;;4933622;28;20369;-72
2022/11/19 11:15:14;;;;;;;6.97;1.10;;;17.00;63.70;;;;;;4930205;28;20062;-73
2022/11/19 11:17:41;;;;;;;8.25;1.63;;;17.00;62.60;;;;;;4933323;29;20059;-74
2022/11/19 11:20:29;;;;;;;7.10;1.30;;;17.10;60.30;;;;;;4936977;28;20166;-73
2022/11/19 11:23:08;;;;;;;4.57;1.10;;;17.50;62.70;;;;;;4936481;28;20031;-74
2022/11/19 11:25:35;;;;;;;5.55;1.20;;;18.20;59.90;;;;;;4934700;28;20526;-73
2022/11/19 11:28:11;;;;;;;6.47;1.40;;;18.30;59.70;;;;;;4928951;28;20050;-74
2022/11/19 11:30:37;;;;;;;6.78;1.10;;;18.20;57.90;;;;;;4925215;29;20031;-73
2022/11/19 11:33:37;;;;;;;4.75;1.25;;;17.70;57.60;;;;;;4928511;28;20043;-73
2022/11/19 11:36:11;;;;;;;3.85;1.10;;;17.60;59.20;;;;;;4926020;28;20744;-73
2022/11/19 11:38:46;;;;;;;13.07;1.30;;;17.90;58.80;;;;;;4931453;29;20043;-74
2022/11/19 11:41:15;;;;;;;5.68;1.10;;;18.50;58.50;;;;;;4931133;28;20672;-74
2022/11/19 11:44:00;;;;;;;6.10;1.30;;;18.20;57.70;;;;;;4930240;28;20045;-74
2022/11/19 11:46:37;;;;;;;5.90;1.10;;;18.80;58.50;;;;;;4932695;29;20031;-74
2022/11/19 11:49:05;;;;;;;5.07;1.17;;;19.10;57.00;;;;;;4934737;28;20032;-74
2022/11/19 11:51:38;;;;;;;5.85;1.25;;;18.90;53.60;;;;;;4935022;28;20099;-74
2022/11/19 11:54:09;;;;;;;5.47;1.08;;;18.60;57.20;;;;;;4941536;28;20398;-74
2022/11/19 11:56:35;;;;;;;;;;;18.90;56.40;;;;;;4933266;29;20027;-74
2022/11/19 11:59:23;;;;;;;3.08;0.70;;;19.20;55.40;;;;;;4940136;28;19914;-74
2022/11/19 12:02:07;;;;;;;6.45;0.90;;;18.80;55.00;;;;;;4935899;28;20027;-74
2022/11/19 12:04:34;;;;;;;3.67;0.80;;;18.70;56.10;;;;;;4933277;28;20293;-74
2022/11/19 12:07:13;;;;;;;3.30;0.88;;;18.40;57.00;;;;;;4942629;28;20082;-74
2022/11/19 12:10:17;;;;;;;5.35;1.02;;;18.00;56.70;;;;;;4943996;28;20031;-73
2022/11/19 12:12:53;;;;;;;7.88;1.20;;;17.60;57.30;;;;;;4934818;28;20138;-74
2022/11/19 12:15:39;;;;;;;5.13;0.77;;;16.50;59.90;;;;;;4942894;28;20448;-74
2022/11/19 12:18:31;;;;;;;6.47;0.70;;;16.50;62.20;;;;;;4934249;28;20812;-74
2022/11/19 12:21:19;;;;;;;3.20;0.80;;;16.80;60.80;;;;;;4924830;28;20085;-74
2022/11/19 12:24:03;;;;;;;3.60;0.90;;;16.80;62.00;;;;;;4925826;28;20039;-74
2022/11/19 12:26:35;;;;;;;3.80;0.80;;;16.40;60.40;;;;;;4937911;28;20038;-74
2022/11/19 12:29:03;;;;;;;3.47;0.88;;;16.80;63.80;;;;;;4934900;28;20070;-74
2022/11/19 12:31:48;;;;;;;3.63;0.70;;;16.80;62.40;;;;;;4937181;28;20033;-74
2022/11/19 12:34:23;;;;;;;4.25;0.77;;;16.40;62.10;;;;;;4941944;28;20034;-73
2022/11/19 12:37:03;;;;;;;3.25;0.60;;;16.00;62.00;;;;;;4943697;28;20041;-74
2022/11/19 12:39:56;;;;;;;5.80;0.70;;;15.50;63.70;;;;;;4935375;29;20503;-75
2022/11/19 12:42:36;;;;;;;4.05;0.82;;;15.30;65.80;;;;;;4939506;29;20031;-74
2022/11/19 12:45:24;;;;;;;2.90;0.70;;;15.00;67.50;;;;;;4936173;28;20031;-74
2022/11/19 12:48:09;;;;;;;4.18;0.95;;;14.80;67.70;;;;;;4935109;28;20034;-73
2022/11/19 12:50:59;;;;;;;1.27;0.60;;;14.30;67.90;;;;;;4931733;28;20046;-74
2022/11/19 12:54:01;;;;;;;3.30;0.90;;;14.20;69.70;;;;;;4940470;28;20049;-74
2022/11/19 12:56:35;;;;;;;4.25;1.05;;;13.80;69.30;;;;;;4934956;28;20043;-74
2022/11/19 12:59:29;;;;;;;3.13;0.82;;;13.70;73.70;;;;;;4936862;28;20035;-74
2022/11/19 13:01:59;;;;;;;4.43;0.90;;;13.60;75.90;;;;;;4929605;28;20582;-74
2022/11/19 13:04:27;;;;;;;2.63;0.77;;;13.60;75.80;;;;;;4933249;28;20454;-73
2022/11/19 13:07:05;;;;;;;5.70;1.00;;;13.50;76.20;;;;;;4937134;28;20050;-73
2022/11/19 13:09:47;;;;;;;4.60;0.90;;;13.30;74.40;;;;;;4937334;28;20035;-74
2022/11/19 13:12:26;;;;;;;2.30;0.90;;;13.20;74.30;;;;;;4938224;28;20090;-73
2022/11/19 13:15:15;;;;;;;7.75;1.80;;;13.20;76.10;;;;;;4936609;28;20081;-74
2022/11/19 13:17:44;;;;;;;4.60;1.20;;;13.10;78.60;;;;;;4921930;28;20870;-74
2022/11/19 13:20:32;;;;;;;4.22;1.08;;;13.10;79.40;;;;;;4925789;28;20143;-74
2022/11/19 13:23:03;;;;;;;2.15;0.80;;;13.10;77.00;;;;;;4920179;28;21219;-74
2022/11/19 13:25:31;;;;;;;2.25;0.60;;;13.00;79.00;;;;;;4936293;28;20550;-74
2022/11/19 13:28:00;;;;;;;3.85;0.70;;;13.00;78.70;;;;;;4936268;28;20039;-74
2022/11/19 13:30:28;;;;;;;3.58;1.00;;;13.00;78.80;;;;;;4970598;28;20046;-74
2022/11/19 13:33:06;;;;;;;6.03;1.33;;;13.10;78.60;;;;;;4962436;28;20043;-73